createdAt,value
2024-01-24T00:01:11.973Z,15.18
2024-01-24T00:03:38.895Z,15.28
2024-01-24T00:06:06.343Z,15.04
2024-01-24T00:08:34.292Z,15.36
2024-01-24T00:11:02.912Z,15.03
2024-01-24T00:13:29.777Z,15.11
2024-01-24T00:15:56.697Z,15.01
2024-01-24T00:18:25.048Z,14.98
2024-01-24T00:20:55.397Z,15.19
2024-01-24T00:23:24.084Z,14.99
2024-01-24T00:25:50.951Z,14.99
2024-01-24T00:28:17.893Z,15.08
2024-01-24T00:30:45.148Z,14.96
2024-01-24T00:33:12.237Z,15.05
2024-01-24T00:35:40.480Z,14.97
2024-01-24T00:38:07.344Z,14.86
2024-01-24T00:40:34.178Z,14.95
2024-01-24T00:43:02.344Z,14.93
2024-01-24T00:45:29.251Z,14.92
2024-01-24T00:47:56.535Z,14.90
2024-01-24T00:50:23.463Z,14.94
2024-01-24T00:52:53.446Z,14.79
2024-01-24T00:55:20.487Z,14.98
2024-01-24T00:57:47.454Z,14.91
2024-01-24T01:00:15.852Z,14.74
2024-01-24T01:02:44.339Z,14.91
2024-01-24T01:05:13.647Z,14.71
2024-01-24T01:07:40.730Z,14.77
2024-01-24T01:10:11.062Z,14.93
2024-01-24T01:12:38.114Z,14.95
2024-01-24T01:15:06.147Z,15.01
2024-01-24T01:17:34.245Z,14.88
2024-01-24T01:20:01.827Z,14.97
2024-01-24T01:22:28.808Z,14.92
2024-01-24T01:24:57.593Z,14.86
2024-01-24T01:27:26.966Z,14.66
2024-01-24T01:29:53.933Z,14.95
2024-01-24T01:32:22.076Z,15.07
2024-01-24T01:34:50.330Z,14.99
2024-01-24T01:37:20.456Z,15.27
2024-01-24T01:39:47.616Z,15.08
2024-01-24T01:42:16.584Z,15.16
2024-01-24T01:44:49.420Z,15.24
2024-01-24T01:47:17.466Z,15.31
2024-01-24T01:49:45.977Z,15.06
2024-01-24T01:52:23.912Z,15.19
2024-01-24T01:54:54.654Z,15.36
2024-01-24T01:57:22.360Z,15.23
2024-01-24T01:59:53.865Z,15.36
2024-01-24T02:02:21.054Z,15.31
2024-01-24T02:04:48.014Z,15.21
2024-01-24T02:07:16.611Z,15.31
2024-01-24T02:09:46.680Z,15.15
2024-01-24T02:12:13.544Z,15.20
2024-01-24T02:14:43.125Z,15.28
2024-01-24T02:17:11.348Z,15.29
2024-01-24T02:19:38.526Z,15.35
2024-01-24T02:22:05.397Z,15.27
2024-01-24T02:24:33.647Z,15.29
2024-01-24T02:27:00.499Z,15.38
2024-01-24T02:29:27.324Z,15.36
2024-01-24T02:31:54.179Z,15.27
2024-01-24T02:34:21.110Z,15.06
2024-01-24T02:36:48.125Z,15.08
2024-01-24T02:39:15.101Z,15.06
2024-01-24T02:41:43.373Z,14.83
2024-01-24T02:44:10.930Z,14.89
2024-01-24T02:46:37.855Z,14.91
2024-01-24T02:49:04.934Z,14.65
2024-01-24T02:51:31.794Z,14.93
2024-01-24T02:53:58.662Z,14.91
2024-01-24T02:56:25.781Z,14.88
2024-01-24T02:58:54.091Z,14.86
2024-01-24T03:01:20.971Z,14.93
2024-01-24T03:03:48.244Z,14.76
2024-01-24T03:06:15.439Z,14.70
2024-01-24T03:08:49.867Z,14.92
2024-01-24T03:11:17.022Z,14.76
2024-01-24T03:13:44.008Z,14.42
2024-01-24T03:16:12.365Z,14.68
2024-01-24T03:18:40.299Z,14.66
2024-01-24T03:21:10.148Z,14.41
2024-01-24T03:23:40.224Z,14.49
2024-01-24T03:26:07.732Z,14.42
2024-01-24T03:28:34.882Z,14.68
2024-01-24T03:31:02.160Z,14.50
2024-01-24T03:33:31.037Z,14.38
2024-01-24T03:35:58.021Z,14.61
2024-01-24T03:38:24.898Z,14.36
2024-01-24T03:40:51.791Z,14.35
2024-01-24T03:43:18.864Z,14.35
2024-01-24T03:45:45.798Z,14.46
2024-01-24T03:48:12.870Z,14.18
2024-01-24T03:50:41.325Z,14.29
2024-01-24T03:53:08.143Z,14.27
2024-01-24T03:55:34.994Z,14.20
2024-01-24T03:58:01.903Z,14.13
2024-01-24T04:00:29.268Z,14.19
2024-01-24T04:02:56.274Z,14.10
2024-01-24T04:05:23.090Z,14.21
2024-01-24T04:07:51.439Z,14.21
2024-01-24T04:10:18.303Z,14.22
2024-01-24T04:12:45.184Z,14.32
2024-01-24T04:15:12.322Z,14.24
2024-01-24T04:17:39.223Z,14.20
2024-01-24T04:20:07.375Z,14.15
2024-01-24T04:22:34.271Z,13.75
2024-01-24T04:25:02.702Z,13.85
2024-01-24T04:27:29.604Z,14.08
2024-01-24T04:29:56.452Z,13.92
2024-01-24T04:32:23.343Z,13.71
2024-01-24T04:34:50.314Z,13.97
2024-01-24T04:37:17.232Z,13.98
2024-01-24T04:39:44.151Z,13.65
2024-01-24T04:42:16.609Z,13.95
2024-01-24T04:44:44.739Z,13.82
2024-01-24T04:47:14.785Z,13.94
2024-01-24T04:49:45.237Z,13.99
2024-01-24T04:52:13.283Z,13.91
2024-01-24T04:54:40.185Z,13.86
2024-01-24T04:57:07.211Z,14.01
2024-01-24T04:59:46.266Z,13.90
2024-01-24T05:02:21.181Z,13.85
2024-01-24T05:04:49.029Z,13.80
2024-01-24T05:07:16.371Z,14.08
2024-01-24T05:09:43.398Z,13.97
2024-01-24T05:12:11.153Z,13.79
2024-01-24T05:14:39.612Z,13.64
2024-01-24T05:17:06.557Z,13.69
2024-01-24T05:19:33.941Z,13.61
2024-01-24T05:22:01.081Z,13.68
2024-01-24T05:24:28.091Z,13.61
2024-01-24T05:27:22.294Z,13.69
2024-01-24T05:29:50.540Z,13.50
2024-01-24T05:32:17.482Z,13.43
2024-01-24T05:34:44.470Z,13.25
2024-01-24T05:37:11.659Z,13.44
2024-01-24T05:39:38.638Z,13.43
2024-01-24T05:42:05.986Z,13.30
2024-01-24T05:44:32.809Z,13.26
2024-01-24T05:47:01.114Z,13.48
2024-01-24T05:49:28.098Z,13.48
2024-01-24T05:51:55.162Z,13.43
2024-01-24T05:54:22.489Z,13.39
2024-01-24T05:56:49.443Z,13.48
2024-01-24T05:59:16.333Z,13.35
2024-01-24T06:01:44.660Z,13.26
2024-01-24T06:04:13.283Z,13.27
2024-01-24T06:06:40.440Z,13.15
2024-01-24T06:09:07.394Z,13.24
2024-01-24T06:11:34.676Z,13.28
2024-01-24T06:14:01.583Z,13.15
2024-01-24T06:16:28.481Z,13.18
2024-01-24T06:18:55.508Z,13.30
2024-01-24T06:21:23.829Z,13.26
2024-01-24T06:23:50.910Z,13.02
2024-01-24T06:26:17.841Z,13.25
2024-01-24T06:28:44.715Z,13.13
2024-01-24T06:31:11.750Z,13.15
2024-01-24T06:33:38.679Z,13.21
2024-01-24T06:36:05.851Z,13.16
2024-01-24T06:38:34.071Z,12.84
2024-01-24T06:41:00.916Z,12.95
2024-01-24T06:43:27.843Z,13.34
2024-01-24T06:45:55.536Z,13.05
2024-01-24T06:48:22.608Z,13.01
2024-01-24T06:50:49.640Z,13.18
2024-01-24T06:53:16.608Z,13.14
2024-01-24T06:55:45.379Z,12.83
2024-01-24T06:58:12.294Z,12.96
2024-01-24T07:00:39.193Z,12.96
2024-01-24T07:03:06.171Z,12.88
2024-01-24T07:05:33.169Z,12.86
2024-01-24T07:08:00.150Z,12.57
2024-01-24T07:10:26.995Z,12.67
2024-01-24T07:12:56.972Z,12.79
2024-01-24T07:15:23.927Z,12.89
2024-01-24T07:17:50.936Z,12.93
2024-01-24T07:20:19.750Z,12.82
2024-01-24T07:22:46.872Z,12.88
2024-01-24T07:25:13.923Z,12.88
2024-01-24T07:27:41.167Z,12.85
2024-01-24T07:30:10.110Z,12.75
2024-01-24T07:32:40.799Z,12.90
2024-01-24T07:35:09.336Z,12.81
2024-01-24T07:37:36.322Z,12.82
2024-01-24T07:40:03.704Z,12.85
2024-01-24T07:42:30.917Z,12.90
2024-01-24T07:44:58.218Z,12.75
2024-01-24T07:47:26.751Z,12.78
2024-01-24T07:49:54.344Z,12.89
2024-01-24T07:52:29.024Z,12.79
2024-01-24T07:55:04.484Z,12.69
2024-01-24T07:57:31.582Z,12.70
2024-01-24T07:59:59.316Z,12.60
2024-01-24T08:02:27.871Z,12.70
2024-01-24T08:04:55.198Z,12.70
2024-01-24T08:07:22.210Z,12.65
2024-01-24T08:09:49.404Z,12.78
2024-01-24T08:12:16.492Z,12.67
2024-01-24T08:14:43.996Z,12.83
2024-01-24T08:17:15.206Z,12.78
2024-01-24T08:19:43.464Z,12.94
2024-01-24T08:22:11.165Z,12.78
2024-01-24T08:24:38.072Z,12.67
2024-01-24T08:27:05.276Z,12.73
2024-01-24T08:29:36.955Z,12.73
2024-01-24T08:32:06.023Z,12.66
2024-01-24T08:34:33.980Z,12.86
2024-01-24T08:37:02.678Z,12.65
2024-01-24T08:39:29.631Z,12.64
2024-01-24T08:41:56.691Z,12.73
2024-01-24T08:44:23.589Z,12.83
2024-01-24T08:46:52.031Z,13.20
2024-01-24T08:49:19.489Z,12.75
2024-01-24T08:51:46.654Z,12.86
2024-01-24T08:54:15.117Z,12.92
2024-01-24T08:56:42.204Z,12.93
2024-01-24T08:59:09.147Z,12.91
2024-01-24T09:01:36.134Z,12.93
2024-01-24T09:04:03.412Z,12.92
2024-01-24T09:06:30.381Z,13.19
2024-01-24T09:08:57.578Z,13.32
2024-01-24T09:11:31.564Z,13.08
2024-01-24T09:14:05.106Z,13.08
2024-01-24T09:16:32.290Z,13.21
2024-01-24T09:18:59.509Z,12.85
2024-01-24T09:21:27.064Z,13.42
2024-01-24T09:23:54.115Z,13.33
2024-01-24T09:26:21.262Z,13.49
2024-01-24T09:28:49.508Z,13.52
2024-01-24T09:31:16.429Z,13.13
2024-01-24T09:33:43.432Z,13.59
2024-01-24T09:36:11.135Z,13.53
2024-01-24T09:38:38.051Z,13.19
2024-01-24T09:41:14.850Z,13.29
2024-01-24T09:43:42.477Z,13.49
2024-01-24T09:46:16.866Z,13.73
2024-01-24T09:48:47.621Z,13.55
2024-01-24T09:51:15.179Z,13.49
2024-01-24T09:53:45.975Z,13.40
2024-01-24T09:56:14.294Z,13.28
2024-01-24T09:58:41.330Z,13.53
2024-01-24T10:01:14.496Z,13.74
2024-01-24T10:03:42.435Z,13.73
2024-01-24T10:06:11.284Z,13.54
2024-01-24T10:08:38.217Z,13.55
2024-01-24T10:11:05.283Z,13.69
2024-01-24T10:13:32.532Z,13.83
2024-01-24T10:16:01.005Z,13.83
2024-01-24T10:18:30.227Z,13.74
2024-01-24T10:20:57.466Z,13.69
2024-01-24T10:23:24.478Z,14.03
2024-01-24T10:25:51.641Z,13.90
2024-01-24T10:28:19.023Z,13.71
2024-01-24T10:30:48.413Z,14.04
2024-01-24T10:33:19.105Z,13.70
2024-01-24T10:35:48.173Z,13.74
2024-01-24T10:38:23.347Z,13.92
2024-01-24T10:40:59.001Z,13.85
2024-01-24T10:43:26.778Z,14.09
2024-01-24T10:45:54.997Z,14.26
2024-01-24T10:48:22.346Z,13.95
2024-01-24T10:50:51.877Z,14.06
2024-01-24T10:53:21.742Z,13.91
2024-01-24T10:55:51.743Z,14.16
2024-01-24T10:58:20.275Z,14.04
2024-01-24T11:00:47.481Z,13.85
2024-01-24T11:03:15.445Z,14.10
2024-01-24T11:05:48.482Z,13.84
2024-01-24T11:08:35.624Z,14.51
2024-01-24T11:11:14.035Z,14.37
2024-01-24T11:13:42.259Z,14.37
2024-01-24T11:16:34.169Z,14.43
2024-01-24T11:19:21.035Z,14.58
2024-01-24T11:21:48.350Z,14.57
2024-01-24T11:24:51.342Z,14.72
2024-01-24T11:27:42.317Z,14.36
2024-01-24T11:30:20.732Z,14.49
2024-01-24T11:33:02.133Z,14.41
2024-01-24T11:35:33.642Z,14.50
2024-01-24T11:40:36.259Z,14.11
2024-01-24T11:43:05.080Z,14.12
2024-01-24T11:45:32.250Z,14.16
2024-01-24T11:47:59.254Z,14.36
2024-01-24T11:50:26.677Z,14.27
2024-01-24T11:52:59.741Z,14.30
2024-01-24T11:55:26.843Z,14.01
2024-01-24T11:57:56.134Z,14.20
2024-01-24T12:04:35.862Z,14.77
2024-01-24T12:07:03.468Z,15.09
2024-01-24T12:09:30.661Z,14.86
2024-01-24T12:11:57.787Z,15.24
2024-01-24T12:14:27.629Z,15.25
2024-01-24T12:16:57.131Z,14.87
2024-01-24T12:19:25.285Z,15.43
2024-01-24T12:21:53.277Z,14.77
2024-01-24T12:24:20.864Z,14.76
2024-01-24T12:26:52.245Z,14.85
2024-01-24T12:29:22.290Z,14.57
2024-01-24T12:31:50.945Z,15.01
2024-01-24T12:34:21.813Z,14.94
2024-01-24T12:36:49.272Z,15.05
2024-01-24T12:39:16.450Z,14.83
2024-01-24T12:41:45.158Z,14.95
2024-01-24T12:44:13.304Z,14.99
2024-01-24T12:46:40.683Z,15.29
2024-01-24T12:49:09.074Z,15.03
2024-01-24T12:51:41.285Z,14.90
2024-01-24T12:54:08.415Z,14.82
2024-01-24T12:56:35.375Z,14.79
2024-01-24T12:59:02.474Z,14.67
2024-01-24T13:01:29.690Z,14.64
2024-01-24T13:03:56.977Z,14.69
2024-01-24T13:06:25.692Z,14.73
2024-01-24T13:08:52.891Z,14.68
2024-01-24T13:11:19.827Z,14.82
2024-01-24T13:13:46.765Z,14.99
2024-01-24T13:20:57.265Z,14.57
2024-01-24T13:56:47.738Z,13.79
2024-01-24T13:59:15.007Z,13.96
2024-01-24T14:01:45.802Z,13.93
2024-01-24T14:04:18.207Z,14.13
2024-01-24T14:06:45.509Z,14.10
2024-01-24T14:09:12.468Z,13.90
2024-01-24T14:11:40.451Z,13.74
2024-01-24T14:14:08.346Z,13.84
2024-01-24T14:16:35.812Z,14.00
2024-01-24T14:19:02.975Z,13.95
2024-01-24T14:21:33.124Z,14.11
2024-01-24T14:28:02.633Z,13.93
2024-01-24T16:14:43.278Z,13.16
2024-01-24T16:17:26.925Z,13.22
2024-01-24T16:19:57.115Z,12.92
2024-01-24T16:22:36.577Z,13.15
2024-01-24T16:25:15.993Z,13.04
2024-01-24T16:27:45.759Z,13.11
2024-01-24T16:30:14.596Z,13.06
2024-01-24T16:32:41.671Z,13.23
2024-01-24T16:35:13.330Z,13.16
2024-01-24T16:37:41.145Z,12.80
2024-01-24T16:40:09.575Z,12.91
2024-01-24T16:42:37.370Z,12.88
2024-01-24T16:45:07.163Z,13.10
2024-01-24T16:47:37.889Z,13.03
2024-01-24T16:50:07.130Z,13.04
2024-01-24T16:52:34.314Z,13.08
2024-01-24T16:55:01.621Z,12.90
2024-01-24T16:57:28.888Z,12.92
2024-01-24T16:59:58.336Z,12.81
2024-01-24T17:02:34.180Z,13.02
2024-01-24T17:05:07.201Z,12.87
2024-01-24T17:07:34.561Z,12.97
2024-01-24T17:10:01.567Z,12.79
2024-01-24T17:12:29.274Z,12.84
2024-01-24T17:14:56.826Z,12.89
2024-01-24T17:17:23.784Z,12.71
2024-01-24T17:19:50.819Z,12.64
2024-01-24T17:22:19.116Z,12.76
2024-01-24T17:24:46.006Z,12.82
2024-01-24T17:27:12.931Z,12.86
2024-01-24T17:29:40.231Z,12.80
2024-01-24T17:32:07.393Z,12.81
2024-01-24T17:34:34.400Z,12.84
2024-01-24T17:37:01.747Z,12.82
2024-01-24T17:39:30.228Z,12.67
2024-01-24T17:41:57.959Z,12.76
2024-01-24T17:44:24.879Z,12.60
2024-01-24T17:46:51.789Z,12.68
2024-01-24T17:49:19.024Z,12.64
2024-01-24T17:51:46.197Z,12.67
2024-01-24T17:54:13.186Z,12.63
2024-01-24T17:56:41.619Z,12.48
2024-01-24T17:59:10.116Z,12.56
2024-01-24T18:01:39.468Z,12.64
2024-01-24T18:04:06.997Z,12.74
2024-01-24T18:06:34.159Z,12.76
2024-01-24T18:09:01.243Z,12.63
2024-01-24T18:11:28.235Z,12.69
2024-01-24T18:13:56.509Z,12.61
2024-01-24T18:16:24.417Z,12.35
2024-01-24T18:18:52.260Z,12.59
2024-01-24T18:21:19.377Z,12.50
2024-01-24T18:23:46.226Z,12.40
2024-01-24T18:26:13.182Z,12.51
2024-01-24T18:28:40.178Z,12.53
2024-01-24T18:31:08.562Z,12.53
2024-01-24T18:33:35.705Z,12.57
2024-01-24T18:36:04.889Z,12.25
2024-01-24T18:38:31.858Z,12.40
2024-01-24T18:40:58.920Z,12.40
2024-01-24T18:43:25.922Z,12.24
2024-01-24T18:45:52.925Z,12.27
2024-01-24T18:48:21.598Z,12.45
2024-01-24T18:50:48.746Z,12.42
2024-01-24T18:53:19.132Z,12.31
2024-01-24T18:56:06.639Z,12.23
2024-01-24T18:58:34.444Z,12.20
2024-01-24T19:01:02.948Z,12.30
2024-01-24T19:03:31.589Z,12.28
2024-01-24T19:05:58.992Z,12.35
2024-01-24T19:08:26.165Z,12.41
2024-01-24T19:10:54.448Z,12.39
2024-01-24T19:13:24.936Z,12.41
2024-01-24T19:15:51.805Z,12.36
2024-01-24T19:18:22.733Z,12.25
2024-01-24T19:20:53.230Z,12.25
2024-01-24T19:23:38.332Z,12.23
2024-01-24T19:26:16.036Z,12.37
2024-01-24T19:28:52.400Z,12.31
2024-01-24T19:31:28.484Z,12.19
2024-01-24T19:33:55.522Z,12.25
2024-01-24T19:36:23.930Z,12.29
2024-01-24T19:38:50.811Z,12.40
2024-01-24T19:41:18.225Z,12.35
2024-01-24T19:44:13.586Z,12.32
2024-01-24T19:46:52.782Z,12.27
2024-01-24T19:49:27.676Z,12.36
2024-01-24T19:51:56.289Z,12.13
2024-01-24T19:54:46.298Z,12.10
2024-01-24T19:57:25.914Z,12.09
2024-01-24T19:59:56.153Z,12.04
2024-01-24T20:03:04.968Z,12.24
2024-01-24T20:05:31.830Z,12.13
2024-01-24T20:08:00.397Z,12.23
2024-01-24T20:10:27.700Z,12.30
2024-01-24T20:12:54.910Z,12.17
2024-01-24T20:15:59.606Z,12.19
2024-01-24T20:18:47.068Z,12.13
2024-01-24T20:21:14.224Z,12.34
2024-01-24T20:23:46.031Z,12.20
2024-01-24T20:26:18.438Z,12.28
2024-01-24T20:29:25.566Z,12.25
2024-01-24T20:36:15.030Z,12.25
2024-01-24T20:38:55.782Z,12.13
2024-01-24T20:41:24.674Z,12.15
2024-01-24T20:43:51.852Z,12.10
2024-01-24T20:46:18.938Z,12.17
2024-01-24T20:48:46.189Z,12.26
2024-01-24T20:51:19.436Z,12.04
2024-01-24T20:53:49.577Z,12.20
2024-01-24T20:56:23.417Z,12.04
2024-01-24T20:58:58.289Z,12.07
2024-01-24T21:01:25.463Z,11.91
2024-01-24T21:03:54.145Z,11.95
2024-01-24T21:06:28.423Z,11.98
2024-01-24T21:09:24.441Z,11.91
2024-01-24T21:11:53.103Z,11.98
2024-01-24T21:14:47.042Z,12.02
2024-01-24T21:17:18.367Z,11.99
2024-01-24T21:19:55.853Z,11.92
2024-01-24T21:22:23.208Z,12.08
2024-01-24T21:24:53.405Z,12.05
2024-01-24T21:27:25.278Z,12.00
2024-01-24T21:29:52.178Z,12.11
2024-01-24T21:36:04.723Z,12.17
2024-01-24T21:38:32.501Z,11.91
2024-01-24T21:40:59.404Z,11.95
2024-01-24T21:43:27.644Z,12.01
2024-01-24T21:45:54.576Z,12.01
2024-01-24T21:48:21.521Z,12.09
2024-01-24T21:50:48.381Z,12.05
2024-01-24T21:53:15.263Z,12.05
2024-01-24T21:55:42.809Z,11.70
2024-01-24T21:58:09.682Z,11.86
2024-01-24T22:00:38.020Z,11.91
2024-01-24T22:03:05.507Z,12.00
2024-01-24T22:05:32.382Z,11.99
2024-01-24T22:07:59.973Z,11.95
2024-01-24T22:10:27.097Z,11.93
2024-01-24T22:12:56.000Z,11.90
2024-01-24T22:15:22.939Z,11.93
2024-01-24T22:17:51.250Z,11.94
2024-01-24T22:20:18.270Z,11.96
2024-01-24T22:22:45.181Z,11.93
2024-01-24T22:25:12.122Z,11.85
2024-01-24T22:27:39.111Z,11.88
2024-01-24T22:30:07.293Z,11.78
2024-01-24T22:32:34.526Z,11.72
2024-01-24T22:35:04.977Z,11.74
2024-01-24T22:37:31.975Z,11.90
2024-01-24T22:39:59.195Z,11.90
2024-01-24T22:42:26.207Z,11.73
2024-01-24T22:44:53.043Z,11.59
2024-01-24T22:47:20.756Z,11.59
2024-01-24T22:49:47.784Z,11.39
2024-01-24T22:52:16.428Z,11.49
2024-01-24T22:54:43.573Z,11.41
2024-01-24T22:57:10.571Z,11.36
2024-01-24T22:59:37.443Z,11.33
2024-01-24T23:02:04.957Z,11.27
2024-01-24T23:04:32.102Z,11.35
2024-01-24T23:06:59.374Z,11.27
2024-01-24T23:09:27.698Z,11.13
2024-01-24T23:11:54.652Z,11.28
2024-01-24T23:14:21.480Z,11.32
2024-01-24T23:16:48.312Z,11.25
2024-01-24T23:19:15.781Z,11.27
2024-01-24T23:21:42.946Z,11.10
2024-01-24T23:24:09.930Z,11.08
2024-01-24T23:26:38.764Z,11.09
2024-01-24T23:29:06.331Z,11.10
2024-01-24T23:31:33.211Z,10.97
2024-01-24T23:34:00.606Z,10.97
2024-01-24T23:36:27.678Z,10.90
2024-01-24T23:38:56.209Z,10.89
2024-01-24T23:41:23.972Z,10.87
2024-01-24T23:43:52.563Z,10.78
2024-01-24T23:46:19.573Z,10.78
2024-01-24T23:48:46.699Z,10.72
2024-01-24T23:51:14.206Z,10.62
2024-01-24T23:53:41.313Z,10.57
2024-01-24T23:56:08.344Z,10.54
2024-01-24T23:58:36.397Z,10.48
